Time;durP1;ratioP1;P1;durP2;ratioP2;P2;SDS_P1;SDS_P2;PMS_P1;PMS_P2;Temp;Humidity;BMP_temperature;BMP_pressure;BME280_temperature;BME280_humidity;BME280_pressure;Samples;Min_cycle;Max_cycle;Signal;HPM_P1;HPM_P2
2023/11/18 00:01:43;;;;;;;10.57;4.82;;;;;;;;;;5036895;28;20104;-68
2023/11/18 00:04:15;;;;;;;9.50;5.28;;;;;;;;;;5036828;28;20026;-68
2023/11/18 00:06:40;;;;;;;9.75;4.50;;;;;;;;;;5037013;28;20399;-68
2023/11/18 00:09:06;;;;;;;11.48;6.32;;;;;;;;;;5036160;28;20025;-68
2023/11/18 00:11:31;;;;;;;11.95;5.75;;;;;;;;;;5036714;28;20026;-68
2023/11/18 00:13:57;;;;;;;13.32;5.40;;;;;;;;;;5036746;28;20426;-68
2023/11/18 00:16:22;;;;;;;9.18;5.10;;;;;;;;;;5036660;28;20025;-68
2023/11/18 00:18:48;;;;;;;9.40;6.18;;;;;;;;;;5036650;28;20022;-68
2023/11/18 00:21:13;;;;;;;12.45;5.38;;;;;;;;;;5036128;28;20100;-68
2023/11/18 00:23:39;;;;;;;17.90;7.95;;;;;;;;;;5036822;28;20074;-68
2023/11/18 00:26:07;;;;;;;14.20;8.07;;;;;;;;;;5035022;28;20029;-68
2023/11/18 00:28:32;;;;;;;16.25;8.45;;;;;;;;;;5036280;28;20018;-68
2023/11/18 00:30:57;;;;;;;13.93;8.48;;;;;;;;;;5036372;28;20100;-68
2023/11/18 00:33:22;;;;;;;15.73;7.97;;;;;;;;;;5035197;28;20113;-68
2023/11/18 00:35:48;;;;;;;17.27;7.65;;;;;;;;;;5051169;28;20502;-69
2023/11/18 00:38:13;;;;;;;14.45;6.97;;;;;;;;;;5036192;28;20064;-69
2023/11/18 00:40:38;;;;;;;14.95;7.95;;;;;;;;;;5036268;28;20026;-68
2023/11/18 00:43:03;;;;;;;10.52;6.78;;;;;;;;;;5036063;28;20029;-68
2023/11/18 00:45:29;;;;;;;13.57;6.03;;;;;;;;;;5035695;28;20028;-68
2023/11/18 00:47:54;;;;;;;16.33;7.32;;;;;;;;;;5036228;28;20025;-69
2023/11/18 00:50:20;;;;;;;14.00;7.00;;;;;;;;;;5034855;28;20552;-68
2023/11/18 00:52:48;;;;;;;12.63;6.45;;;;;;;;;;5036246;28;20470;-68
2023/11/18 00:55:13;;;;;;;20.17;9.35;;;;;;;;;;5050825;28;20027;-68
2023/11/18 00:57:41;;;;;;;18.20;8.68;;;;;;;;;;5059704;22;20049;-68
2023/11/18 01:00:13;;;;;;;16.45;7.55;;;;;;;;;;5055723;28;20482;-68
2023/11/18 01:02:43;;;;;;;12.82;6.20;;;;;;;;;;5056313;28;20055;-68
2023/11/18 01:05:10;;;;;;;15.23;6.70;;;;;;;;;;5054420;28;20024;-69
2023/11/18 01:07:36;;;;;;;11.80;6.70;;;;;;;;;;5053842;28;20054;-68
2023/11/18 01:10:03;;;;;;;12.27;5.70;;;;;;;;;;5054608;28;20116;-68
2023/11/18 01:12:28;;;;;;;11.88;6.00;;;;;;;;;;5054174;28;20025;-69
2023/11/18 01:14:53;;;;;;;13.27;7.07;;;;;;;;;;5055383;28;20074;-68
2023/11/18 01:17:21;;;;;;;12.68;5.53;;;;;;;;;;5055321;28;20390;-68
2023/11/18 01:19:47;;;;;;;15.38;7.00;;;;;;;;;;5054479;28;20024;-68
2023/11/18 01:22:12;;;;;;;16.08;7.15;;;;;;;;;;5054962;28;20377;-69
2023/11/18 01:24:37;;;;;;;17.90;7.85;;;;;;;;;;5055217;28;20104;-68
2023/11/18 01:27:03;;;;;;;12.82;6.90;;;;;;;;;;5055354;28;20025;-69
2023/11/18 01:29:28;;;;;;;11.38;7.13;;;;;;;;;;5055414;28;20021;-68
2023/11/18 01:31:55;;;;;;;12.82;5.75;;;;;;;;;;5054666;28;20021;-68
2023/11/18 01:34:21;;;;;;;12.60;7.07;;;;;;;;;;5055046;28;20060;-68
2023/11/18 01:36:49;;;;;;;14.45;7.68;;;;;;;;;;5055030;28;20559;-68
2023/11/18 01:39:15;;;;;;;14.75;7.75;;;;;;;;;;5053202;28;20028;-68
2023/11/18 01:41:40;;;;;;;13.32;7.05;;;;;;;;;;5054878;28;20025;-68
2023/11/18 01:44:05;;;;;;;9.73;5.60;;;;;;;;;;5054817;28;20536;-69
2023/11/18 01:46:31;;;;;;;12.75;6.88;;;;;;;;;;5053673;28;20029;-68
2023/11/18 01:48:56;;;;;;;12.50;6.97;;;;;;;;;;5053317;28;20470;-68
2023/11/18 01:51:23;;;;;;;10.95;6.82;;;;;;;;;;5053562;28;20040;-68
2023/11/18 01:53:50;;;;;;;10.95;6.53;;;;;;;;;;5055121;28;20071;-69
2023/11/18 01:56:15;;;;;;;15.93;7.10;;;;;;;;;;5053240;28;20025;-68
2023/11/18 01:58:41;;;;;;;12.90;6.63;;;;;;;;;;5052892;28;20544;-68
2023/11/18 02:01:08;;;;;;;9.23;6.13;;;;;;;;;;5067016;28;20040;-68
2023/11/18 02:03:34;;;;;;;14.00;5.55;;;;;;;;;;5054039;28;20025;-68
2023/11/18 02:05:59;;;;;;;14.55;7.20;;;;;;;;;;5057405;28;20021;-69
2023/11/18 02:08:24;;;;;;;9.02;6.22;;;;;;;;;;5052902;28;20086;-68
2023/11/18 02:11:03;;;;;;;12.45;5.60;;;;;;;;;;5054189;28;20025;-68
2023/11/18 02:13:34;;;;;;;10.13;5.15;;;;;;;;;;5054609;28;20021;-68
2023/11/18 02:16:00;;;;;;;13.90;6.60;;;;;;;;;;5035460;28;20070;-68
2023/11/18 02:18:26;;;;;;;14.13;7.35;;;;;;;;;;5040101;28;20075;-68
2023/11/18 02:20:54;;;;;;;12.25;6.47;;;;;;;;;;5053091;28;20033;-68
2023/11/18 02:23:21;;;;;;;13.65;6.93;;;;;;;;;;5053961;28;20548;-68
2023/11/18 02:25:47;;;;;;;12.07;6.50;;;;;;;;;;5052956;28;20037;-68
2023/11/18 02:28:13;;;;;;;13.70;6.90;;;;;;;;;;5053298;28;20139;-68
2023/11/18 02:30:39;;;;;;;14.18;6.82;;;;;;;;;;5053890;28;20553;-68
2023/11/18 02:33:29;;;;;;;10.93;6.50;;;;;;;;;;5052576;28;20025;-68
2023/11/18 02:35:59;;;;;;;12.43;6.53;;;;;;;;;;5053164;28;20024;-68
2023/11/18 02:38:31;;;;;;;11.82;6.63;;;;;;;;;;5052010;28;20033;-68
2023/11/18 02:40:58;;;;;;;14.48;6.82;;;;;;;;;;5053090;28;20025;-68
2023/11/18 02:43:24;;;;;;;14.52;7.10;;;;;;;;;;5052474;28;20095;-68
2023/11/18 02:45:51;;;;;;;13.68;5.57;;;;;;;;;;5051773;28;20389;-69
2023/11/18 02:48:17;;;;;;;12.70;6.57;;;;;;;;;;5052329;28;20070;-68
2023/11/18 02:50:43;;;;;;;15.18;8.90;;;;;;;;;;5052475;28;20027;-68
2023/11/18 02:53:09;;;;;;;16.75;8.07;;;;;;;;;;5052270;28;20020;-68
2023/11/18 02:55:34;;;;;;;14.60;8.20;;;;;;;;;;5053425;28;20074;-68
2023/11/18 02:58:00;;;;;;;11.77;6.05;;;;;;;;;;5050817;28;20037;-68
2023/11/18 03:00:25;;;;;;;15.75;6.85;;;;;;;;;;5053346;28;20025;-68
2023/11/18 03:02:51;;;;;;;11.20;6.63;;;;;;;;;;5053423;28;20036;-68
2023/11/18 03:05:20;;;;;;;12.77;7.40;;;;;;;;;;5053186;28;20025;-69
2023/11/18 03:07:49;;;;;;;11.95;6.60;;;;;;;;;;5051467;28;20075;-68
2023/11/18 03:10:20;;;;;;;12.25;6.10;;;;;;;;;;5053218;28;20048;-68
2023/11/18 03:12:47;;;;;;;17.33;6.95;;;;;;;;;;5052015;28;20397;-68
2023/11/18 03:15:12;;;;;;;13.07;7.22;;;;;;;;;;5052919;28;20025;-68
2023/11/18 03:17:38;;;;;;;15.15;7.35;;;;;;;;;;5051955;28;20138;-68
2023/11/18 03:20:05;;;;;;;12.85;6.75;;;;;;;;;;5051279;28;20025;-68
2023/11/18 03:22:31;;;;;;;16.38;7.43;;;;;;;;;;5051698;28;20043;-68
2023/11/18 03:24:56;;;;;;;12.43;6.95;;;;;;;;;;5052061;28;20016;-68
2023/11/18 03:27:22;;;;;;;12.25;7.40;;;;;;;;;;5052696;28;20091;-68
2023/11/18 03:29:48;;;;;;;12.00;6.40;;;;;;;;;;5052956;28;20027;-68
2023/11/18 03:32:13;;;;;;;15.73;7.32;;;;;;;;;;5052051;28;20029;-68
2023/11/18 03:34:38;;;;;;;12.02;6.15;;;;;;;;;;5052365;28;20466;-68
2023/11/18 03:37:04;;;;;;;12.75;7.53;;;;;;;;;;5052842;28;20029;-68
2023/11/18 03:39:30;;;;;;;12.00;6.47;;;;;;;;;;5051748;28;20450;-68
2023/11/18 03:41:57;;;;;;;15.93;8.25;;;;;;;;;;5052567;28;20031;-68
2023/11/18 03:44:23;;;;;;;16.27;7.88;;;;;;;;;;5052980;28;20478;-68
2023/11/18 03:46:49;;;;;;;13.05;7.15;;;;;;;;;;5050927;28;20029;-68
2023/11/18 03:49:14;;;;;;;17.70;7.95;;;;;;;;;;5052986;28;20489;-68
2023/11/18 03:51:39;;;;;;;14.30;8.13;;;;;;;;;;5052769;28;20024;-68
2023/11/18 03:54:05;;;;;;;11.05;6.82;;;;;;;;;;5052148;28;20103;-68
2023/11/18 03:56:30;;;;;;;15.93;7.78;;;;;;;;;;5052826;28;20410;-68
2023/11/18 03:58:55;;;;;;;16.55;7.82;;;;;;;;;;5052483;28;20032;-68
2023/11/18 04:01:22;;;;;;;16.98;8.30;;;;;;;;;;5052615;28;20029;-68
2023/11/18 04:03:48;;;;;;;14.85;7.50;;;;;;;;;;5051071;28;20029;-68
2023/11/18 04:06:14;;;;;;;16.13;7.70;;;;;;;;;;5052669;28;20474;-68
2023/11/18 04:08:45;;;;;;;14.98;8.60;;;;;;;;;;5053092;28;20024;-68
2023/11/18 04:11:11;;;;;;;14.15;6.95;;;;;;;;;;5055285;28;20482;-68
2023/11/18 04:13:36;;;;;;;12.82;6.53;;;;;;;;;;5055126;28;20029;-68
2023/11/18 04:16:03;;;;;;;17.38;8.43;;;;;;;;;;5054445;28;20017;-68
2023/11/18 04:18:28;;;;;;;14.25;7.63;;;;;;;;;;5056294;28;20044;-68
2023/11/18 04:20:54;;;;;;;16.58;8.15;;;;;;;;;;5056702;28;20025;-68
2023/11/18 04:23:19;;;;;;;13.75;7.95;;;;;;;;;;5055032;28;20016;-68
2023/11/18 04:25:44;;;;;;;15.82;7.82;;;;;;;;;;5056478;28;20104;-68
2023/11/18 04:28:10;;;;;;;21.98;7.18;;;;;;;;;;5056164;28;20540;-68
2023/11/18 04:30:35;;;;;;;15.20;7.60;;;;;;;;;;5054920;28;20036;-68
2023/11/18 04:33:01;;;;;;;15.07;8.20;;;;;;;;;;5034545;28;20029;-68
2023/11/18 04:35:26;;;;;;;20.45;8.13;;;;;;;;;;5035652;28;20494;-68
2023/11/18 04:37:51;;;;;;;22.35;8.60;;;;;;;;;;5034962;28;20026;-69
2023/11/18 04:40:16;;;;;;;18.63;8.77;;;;;;;;;;5049197;28;20016;-68
2023/11/18 04:42:42;;;;;;;18.48;9.35;;;;;;;;;;5055951;28;20044;-68
2023/11/18 04:45:09;;;;;;;20.38;8.48;;;;;;;;;;5055179;28;20154;-68
2023/11/18 04:47:35;;;;;;;17.63;9.27;;;;;;;;;;5055844;28;20028;-68
2023/11/18 04:50:00;;;;;;;24.65;10.27;;;;;;;;;;5055485;28;20025;-68
2023/11/18 04:52:26;;;;;;;19.65;9.20;;;;;;;;;;5055047;28;20027;-68
2023/11/18 04:54:52;;;;;;;22.05;9.60;;;;;;;;;;5055776;28;20021;-68
2023/11/18 04:57:17;;;;;;;23.25;9.88;;;;;;;;;;5055280;28;20037;-68
2023/11/18 04:59:43;;;;;;;21.33;10.73;;;;;;;;;;5055698;28;20079;-68
2023/11/18 05:02:08;;;;;;;15.00;7.97;;;;;;;;;;5054868;28;20025;-69
2023/11/18 05:04:34;;;;;;;17.52;8.13;;;;;;;;;;5054181;28;20493;-68
2023/11/18 05:06:59;;;;;;;16.95;8.15;;;;;;;;;;5054413;28;20135;-68
2023/11/18 05:09:25;;;;;;;20.88;9.60;;;;;;;;;;5055549;28;20079;-68
2023/11/18 05:11:50;;;;;;;21.48;10.38;;;;;;;;;;5054651;28;20053;-68
2023/11/18 05:14:16;;;;;;;21.15;10.20;;;;;;;;;;5055415;28;20017;-68
2023/11/18 05:16:42;;;;;;;17.88;9.20;;;;;;;;;;5055630;28;20036;-68
2023/11/18 05:19:07;;;;;;;20.13;9.45;;;;;;;;;;5054926;28;20075;-68
2023/11/18 05:21:32;;;;;;;20.92;9.05;;;;;;;;;;5054787;28;20437;-68
2023/11/18 05:23:58;;;;;;;19.38;8.27;;;;;;;;;;5055489;28;20363;-68
2023/11/18 05:26:23;;;;;;;21.65;10.25;;;;;;;;;;5055224;28;20029;-68
2023/11/18 05:28:48;;;;;;;22.55;9.35;;;;;;;;;;5055202;28;20028;-69
2023/11/18 05:31:15;;;;;;;19.27;9.45;;;;;;;;;;5054915;28;20025;-69
2023/11/18 05:33:40;;;;;;;19.27;7.80;;;;;;;;;;5054050;28;20029;-68
2023/11/18 05:36:06;;;;;;;15.65;7.22;;;;;;;;;;5055073;28;20021;-68
2023/11/18 05:38:34;;;;;;;18.33;8.88;;;;;;;;;;5055593;28;20057;-68
2023/11/18 05:41:02;;;;;;;20.33;7.53;;;;;;;;;;5053354;28;20394;-68
2023/11/18 05:43:40;;;;;;;15.65;9.07;;;;;;;;;;5055154;28;20031;-69
2023/11/18 05:46:14;;;;;;;17.85;8.05;;;;;;;;;;5055479;28;20017;-68
2023/11/18 05:48:43;;;;;;;14.93;7.72;;;;;;;;;;5055674;28;20055;-68
2023/11/18 05:51:09;;;;;;;14.65;6.60;;;;;;;;;;5053574;28;20024;-68
2023/11/18 05:53:39;;;;;;;16.73;6.35;;;;;;;;;;5053028;28;20490;-68
2023/11/18 05:56:06;;;;;;;20.45;7.97;;;;;;;;;;5054393;28;20020;-68
2023/11/18 05:58:32;;;;;;;16.83;6.82;;;;;;;;;;5053476;28;20039;-68
2023/11/18 06:00:58;;;;;;;19.75;7.00;;;;;;;;;;5054537;28;20043;-68
2023/11/18 06:03:23;;;;;;;16.65;7.50;;;;;;;;;;5053309;28;20474;-68
2023/11/18 06:05:48;;;;;;;15.93;6.40;;;;;;;;;;5054609;28;20025;-68
2023/11/18 06:08:13;;;;;;;15.38;7.90;;;;;;;;;;5054243;28;20045;-68
2023/11/18 06:10:39;;;;;;;15.57;7.07;;;;;;;;;;5054356;28;20017;-68
2023/11/18 06:13:04;;;;;;;16.35;7.28;;;;;;;;;;5054338;28;20067;-68
2023/11/18 06:15:29;;;;;;;15.27;7.43;;;;;;;;;;5054617;28;20020;-68
2023/11/18 06:17:55;;;;;;;14.90;8.02;;;;;;;;;;5053678;28;20032;-68
2023/11/18 06:20:23;;;;;;;18.92;7.70;;;;;;;;;;5054462;28;20033;-68
2023/11/18 06:22:48;;;;;;;19.10;7.78;;;;;;;;;;5053259;28;20028;-68
2023/11/18 06:25:14;;;;;;;19.27;7.65;;;;;;;;;;5054303;28;20102;-68
2023/11/18 06:27:39;;;;;;;15.90;6.97;;;;;;;;;;5052351;28;20436;-68
2023/11/18 06:30:06;;;;;;;14.40;7.35;;;;;;;;;;5054370;28;20029;-68
2023/11/18 06:32:31;;;;;;;15.13;7.13;;;;;;;;;;5051913;28;20029;-68
2023/11/18 06:34:57;;;;;;;16.02;7.20;;;;;;;;;;5053306;28;20367;-68
2023/11/18 06:37:22;;;;;;;17.35;7.90;;;;;;;;;;5053953;28;20021;-68
2023/11/18 06:39:48;;;;;;;19.25;7.65;;;;;;;;;;5054097;28;20169;-68
2023/11/18 06:42:14;;;;;;;15.18;7.28;;;;;;;;;;5052173;28;20112;-68
2023/11/18 06:44:40;;;;;;;12.27;6.30;;;;;;;;;;5052675;28;20048;-68
2023/11/18 06:47:06;;;;;;;16.60;6.97;;;;;;;;;;5052582;28;20021;-69
2023/11/18 06:49:34;;;;;;;16.23;7.57;;;;;;;;;;5053827;28;20512;-68
2023/11/18 06:52:03;;;;;;;15.65;7.47;;;;;;;;;;5053707;28;20033;-68
2023/11/18 06:54:30;;;;;;;18.77;8.57;;;;;;;;;;5051956;28;20142;-68
2023/11/18 06:56:56;;;;;;;20.85;8.70;;;;;;;;;;5053400;28;20044;-68
2023/11/18 06:59:21;;;;;;;16.25;5.78;;;;;;;;;;5053530;28;20371;-68
2023/11/18 07:01:46;;;;;;;16.67;8.15;;;;;;;;;;5053670;28;20024;-68
2023/11/18 07:04:11;;;;;;;20.80;9.07;;;;;;;;;;5053955;28;20088;-68
2023/11/18 07:06:41;;;;;;;20.52;9.65;;;;;;;;;;5052794;28;20035;-68
2023/11/18 07:09:18;;;;;;;22.45;10.20;;;;;;;;;;5053931;28;20052;-68
2023/11/18 07:11:43;;;;;;;25.00;10.05;;;;;;;;;;5053562;28;20021;-68
2023/11/18 07:14:10;;;;;;;27.50;9.77;;;;;;;;;;5053534;28;20035;-68
2023/11/18 07:16:36;;;;;;;24.33;10.80;;;;;;;;;;5053433;28;20028;-68
2023/11/18 07:19:03;;;;;;;27.15;10.43;;;;;;;;;;5052158;28;20029;-68
2023/11/18 07:21:29;;;;;;;23.67;9.05;;;;;;;;;;5053118;28;20061;-68
2023/11/18 07:23:54;;;;;;;26.05;10.75;;;;;;;;;;5054128;28;20039;-68
2023/11/18 07:26:19;;;;;;;21.50;9.50;;;;;;;;;;5053488;28;20048;-68
2023/11/18 07:28:45;;;;;;;21.85;9.55;;;;;;;;;;5053460;28;20052;-68
2023/11/18 07:31:10;;;;;;;22.05;7.90;;;;;;;;;;5051964;28;20078;-68
2023/11/18 07:33:35;;;;;;;22.23;9.32;;;;;;;;;;5051890;28;20017;-68
2023/11/18 07:36:05;;;;;;;25.13;10.20;;;;;;;;;;5051873;28;20033;-68
2023/11/18 07:38:32;;;;;;;26.85;10.30;;;;;;;;;;5053468;28;20024;-69
2023/11/18 07:40:57;;;;;;;20.45;8.18;;;;;;;;;;5053159;28;20086;-68
2023/11/18 07:43:23;;;;;;;23.52;8.23;;;;;;;;;;5052743;28;20443;-68
2023/11/18 07:45:53;;;;;;;24.52;9.73;;;;;;;;;;5055747;28;20021;-68
2023/11/18 07:48:20;;;;;;;23.63;9.50;;;;;;;;;;5057387;28;20013;-68
2023/11/18 07:50:45;;;;;;;24.63;8.75;;;;;;;;;;5056210;28;20033;-69
2023/11/18 07:53:12;;;;;;;23.45;10.10;;;;;;;;;;5056906;28;20036;-68
2023/11/18 07:55:39;;;;;;;20.08;9.00;;;;;;;;;;5055154;28;20022;-68
2023/11/18 07:58:11;;;;;;;20.83;8.63;;;;;;;;;;5057378;28;20039;-68
2023/11/18 08:00:39;;;;;;;;;;;;;;;;;;5066692;22;20041;-67
2023/11/18 08:03:11;;;;;;;18.17;6.70;;;;;;;;;;5045750;28;19917;-67
2023/11/18 08:05:37;;;;;;;;;;;;;;;;;;5056843;28;20052;-67
2023/11/18 08:08:04;;;;;;;17.75;8.50;;;;;;;;;;5055701;28;19947;-67
2023/11/18 08:10:32;;;;;;;23.58;8.55;;;;;;;;;;5056382;28;20044;-67
2023/11/18 08:12:58;;;;;;;17.65;7.80;;;;;;;;;;5056193;28;20036;-67
2023/11/18 08:15:24;;;;;;;21.45;8.98;;;;;;;;;;5055049;28;20021;-67
2023/11/18 08:17:51;;;;;;;26.90;8.90;;;;;;;;;;5056212;28;20484;-67
2023/11/18 08:20:16;;;;;;;18.80;7.72;;;;;;;;;;5031069;28;20101;-67
2023/11/18 08:22:45;;;;;;;21.65;10.02;;;;;;;;;;5016641;28;20021;-67
2023/11/18 08:25:12;;;;;;;21.17;9.13;;;;;;;;;;5031271;28;20113;-67
2023/11/18 08:27:39;;;;;;;19.83;9.10;;;;;;;;;;5015299;28;20052;-67
2023/11/18 08:30:10;;;;;;;20.15;9.05;;;;;;;;;;5015914;28;20022;-67
2023/11/18 08:32:36;;;;;;;18.83;7.90;;;;;;;;;;5046977;28;20028;-67
2023/11/18 08:35:01;;;;;;;23.33;8.32;;;;;;;;;;5056333;28;20036;-67
2023/11/18 08:37:27;;;;;;;20.00;9.07;;;;;;;;;;5055936;28;20090;-67
2023/11/18 08:39:53;;;;;;;21.77;8.48;;;;;;;;;;5054577;28;20375;-67
2023/11/18 08:42:18;;;;;;;22.80;8.85;;;;;;;;;;5055961;28;20024;-67
2023/11/18 08:44:46;;;;;;;19.58;9.00;;;;;;;;;;5042695;28;20083;-67
2023/11/18 08:47:12;;;;;;;19.85;9.07;;;;;;;;;;5016087;28;20018;-67
2023/11/18 08:49:40;;;;;;;20.00;9.23;;;;;;;;;;5014409;28;20026;-68
2023/11/18 08:52:09;;;;;;;22.67;8.80;;;;;;;;;;5014380;28;20032;-67
2023/11/18 08:54:38;;;;;;;25.52;9.20;;;;;;;;;;5015442;28;20053;-70
2023/11/18 08:57:15;;;;;;;18.10;7.22;;;;;;;;;;5014783;28;20112;-68
2023/11/18 08:59:41;;;;;;;18.63;8.90;;;;;;;;;;5021213;28;20057;-68
2023/11/18 09:02:14;;;;;;;24.10;8.52;;;;;;;;;;5015512;28;20032;-68
2023/11/18 09:04:42;;;;;;;19.27;7.45;;;;;;;;;;5015588;28;20014;-67
2023/11/18 09:07:09;;;;;;;22.25;8.70;;;;;;;;;;5016006;28;20030;-68
2023/11/18 09:09:35;;;;;;;20.67;8.35;;;;;;;;;;5052547;28;20079;-68
2023/11/18 09:12:02;;;;;;;20.35;8.73;;;;;;;;;;5054480;28;20033;-68
2023/11/18 09:14:28;;;;;;;22.83;7.38;;;;;;;;;;5055074;28;20441;-68
2023/11/18 09:16:58;;;;;;;19.92;7.47;;;;;;;;;;5055386;28;20043;-68
2023/11/18 09:19:24;;;;;;;14.88;7.32;;;;;;;;;;5055153;28;20083;-68
2023/11/18 09:21:51;;;;;;;14.32;6.10;;;;;;;;;;5039901;28;20375;-68
2023/11/18 09:24:19;;;;;;;15.85;7.03;;;;;;;;;;5035041;28;20025;-68
2023/11/18 09:26:47;;;;;;;15.98;7.50;;;;;;;;;;5034765;28;20040;-68
2023/11/18 09:29:15;;;;;;;16.38;7.50;;;;;;;;;;5021245;28;20079;-67
2023/11/18 09:31:41;;;;;;;13.20;6.90;;;;;;;;;;5013704;28;20088;-67
2023/11/18 09:34:15;;;;;;;12.98;6.13;;;;;;;;;;5026367;28;20029;-68
2023/11/18 09:36:43;;;;;;;13.20;6.55;;;;;;;;;;5034094;28;20104;-68
2023/11/18 09:39:08;;;;;;;15.57;6.78;;;;;;;;;;5035323;28;20040;-68
2023/11/18 09:41:34;;;;;;;15.13;5.60;;;;;;;;;;5033928;28;20025;-68
2023/11/18 09:44:02;;;;;;;12.85;7.05;;;;;;;;;;5033938;28;20017;-67
2023/11/18 09:46:32;;;;;;;15.07;7.28;;;;;;;;;;5033075;28;20031;-67
2023/11/18 09:49:14;;;;;;;17.42;6.70;;;;;;;;;;5035232;28;20029;-67
2023/11/18 09:51:41;;;;;;;14.70;6.35;;;;;;;;;;5035001;28;20025;-67
2023/11/18 09:54:14;;;;;;;11.30;5.63;;;;;;;;;;5034998;28;20363;-67
2023/11/18 09:57:08;;;;;;;12.55;6.88;;;;;;;;;;5033134;28;20324;-67
2023/11/18 09:59:53;;;;;;;12.15;7.03;;;;;;;;;;5040049;28;20489;-67
2023/11/18 10:02:22;;;;;;;14.13;6.00;;;;;;;;;;5053255;28;20429;-68
2023/11/18 10:04:56;;;;;;;15.80;7.35;;;;;;;;;;5069781;28;20017;-67
2023/11/18 10:07:22;;;;;;;15.57;6.03;;;;;;;;;;5053314;28;20120;-67
2023/11/18 10:09:49;;;;;;;14.30;7.00;;;;;;;;;;5052179;28;20059;-68
2023/11/18 10:12:16;;;;;;;14.10;5.80;;;;;;;;;;5069588;28;20060;-67
2023/11/18 10:14:45;;;;;;;14.98;6.55;;;;;;;;;;5054560;28;20049;-67
2023/11/18 10:17:14;;;;;;;16.52;6.80;;;;;;;;;;5054039;28;20063;-68
2023/11/18 10:19:57;;;;;;;16.88;7.38;;;;;;;;;;5053475;28;20029;-67
2023/11/18 10:22:24;;;;;;;13.00;5.57;;;;;;;;;;5053797;28;20036;-68
2023/11/18 10:24:49;;;;;;;14.77;6.15;;;;;;;;;;5054325;28;20389;-67
2023/11/18 10:27:15;;;;;;;13.65;6.57;;;;;;;;;;5054087;28;20025;-68
2023/11/18 10:29:40;;;;;;;12.18;6.32;;;;;;;;;;5052583;28;20029;-68
2023/11/18 10:32:15;;;;;;;13.57;7.00;;;;;;;;;;5053335;28;20032;-68
2023/11/18 10:34:41;;;;;;;14.82;7.65;;;;;;;;;;5052791;28;20072;-68
2023/11/18 10:37:06;;;;;;;12.52;6.80;;;;;;;;;;5052977;28;20025;-68
2023/11/18 10:39:32;;;;;;;13.88;7.68;;;;;;;;;;5069095;28;20115;-68
2023/11/18 10:42:01;;;;;;;14.73;6.95;;;;;;;;;;5053623;28;20425;-68
2023/11/18 10:44:26;;;;;;;15.55;7.43;;;;;;;;;;5041673;28;20025;-68
2023/11/18 10:46:53;;;;;;;14.50;7.72;;;;;;;;;;5014162;28;20025;-69
2023/11/18 10:49:18;;;;;;;12.57;5.75;;;;;;;;;;5012405;28;20411;-68
2023/11/18 10:51:47;;;;;;;15.15;6.80;;;;;;;;;;5013873;28;20029;-68
2023/11/18 10:54:17;;;;;;;14.63;5.90;;;;;;;;;;5012891;28;20063;-68
2023/11/18 10:56:46;;;;;;;12.35;7.05;;;;;;;;;;5016010;28;20037;-68
2023/11/18 10:59:16;;;;;;;12.10;6.72;;;;;;;;;;5051561;28;20462;-67
2023/11/18 11:01:44;;;;;;;14.45;7.18;;;;;;;;;;5052220;28;20103;-68
2023/11/18 11:04:11;;;;;;;14.63;9.32;;;;;;;;;;5052258;28;20024;-68
2023/11/18 11:09:36;;;;;;;11.63;5.85;;;;;;;;;;5872040;23;20057;-68
2023/11/18 11:12:06;;;;;;;14.25;7.15;;;;;;;;;;5053269;28;20104;-69
2023/11/18 11:14:41;;;;;;;9.05;5.20;;;;;;;;;;5069080;28;20024;-71
2023/11/18 11:17:14;;;;;;;10.90;5.82;;;;;;;;;;5051887;28;20029;-68
2023/11/18 11:20:11;;;;;;;10.70;5.95;;;;;;;;;;5053463;28;20017;-68
2023/11/18 11:22:47;;;;;;;10.77;5.45;;;;;;;;;;5052402;28;20060;-69
2023/11/18 11:25:22;;;;;;;11.07;6.13;;;;;;;;;;5146972;22;20103;-69
2023/11/18 11:27:51;;;;;;;10.82;5.32;;;;;;;;;;5069289;28;20020;-69
2023/11/18 11:30:26;;;;;;;12.45;6.78;;;;;;;;;;5068589;28;20021;-68
2023/11/18 11:32:53;;;;;;;10.85;6.13;;;;;;;;;;5068839;28;20082;-69
2023/11/18 11:35:33;;;;;;;12.98;5.15;;;;;;;;;;5053241;28;20029;-69
2023/11/18 11:38:04;;;;;;;11.10;5.00;;;;;;;;;;5053476;28;20025;-69
2023/11/18 11:40:31;;;;;;;9.43;5.55;;;;;;;;;;5052717;28;20497;-69
2023/11/18 11:42:56;;;;;;;13.13;5.40;;;;;;;;;;5053507;28;20060;-69
2023/11/18 11:45:28;;;;;;;9.55;5.28;;;;;;;;;;5051556;28;20032;-69
2023/11/18 11:48:12;;;;;;;9.93;5.10;;;;;;;;;;5052150;28;20064;-69
2023/11/18 11:50:45;;;;;;;7.28;4.55;;;;;;;;;;5052570;28;20036;-69
2023/11/18 11:53:16;;;;;;;8.00;4.03;;;;;;;;;;5051751;28;20419;-68
2023/11/18 11:55:46;;;;;;;8.77;4.95;;;;;;;;;;5052151;28;20025;-69
2023/11/18 11:58:36;;;;;;;9.52;4.93;;;;;;;;;;5051999;28;20025;-69
2023/11/18 12:01:34;;;;;;;9.85;5.18;;;;;;;;;;5052086;28;20104;-69
2023/11/18 12:04:06;;;;;;;9.27;4.18;;;;;;;;;;5048572;28;20440;-68
2023/11/18 12:06:32;;;;;;;9.77;4.57;;;;;;;;;;5053498;28;20048;-69
2023/11/18 12:08:57;;;;;;;9.68;5.20;;;;;;;;;;5051429;28;20032;-68
2023/11/18 12:11:23;;;;;;;10.48;6.13;;;;;;;;;;5035292;28;20021;-68
2023/11/18 12:17:10;;;;;;;9.27;5.15;;;;;;;;;;5052100;28;20032;-69
2023/11/18 12:19:48;;;;;;;7.97;4.40;;;;;;;;;;5036110;28;20029;-71
2023/11/18 12:22:18;;;;;;;11.35;6.25;;;;;;;;;;5051528;28;20520;-70
2023/11/18 12:24:58;;;;;;;9.50;4.40;;;;;;;;;;5035285;28;20024;-70
2023/11/18 12:27:39;;;;;;;8.00;4.88;;;;;;;;;;5052764;28;20028;-70
2023/11/18 12:30:15;;;;;;;9.25;5.10;;;;;;;;;;5053320;28;20036;-70
2023/11/18 12:33:05;;;;;;;9.25;4.43;;;;;;;;;;5056424;28;20143;-69
2023/11/18 12:35:52;;;;;;;7.70;4.13;;;;;;;;;;5055237;28;20473;-69
2023/11/18 12:38:28;;;;;;;13.20;5.45;;;;;;;;;;5056625;28;20029;-69
2023/11/18 12:40:55;;;;;;;7.22;4.05;;;;;;;;;;5049695;28;20358;-69
2023/11/18 12:43:47;;;;;;;7.88;4.90;;;;;;;;;;5051134;28;20032;-69
2023/11/18 12:46:52;;;;;;;8.77;4.78;;;;;;;;;;5039754;28;20025;-68
2023/11/18 12:49:25;;;;;;;10.35;5.97;;;;;;;;;;5048178;28;20052;-68
2023/11/18 12:51:52;;;;;;;11.23;5.68;;;;;;;;;;5035978;28;20025;-69
2023/11/18 12:54:19;;;;;;;10.65;5.30;;;;;;;;;;5034790;28;20053;-69
2023/11/18 12:56:48;;;;;;;7.43;4.50;;;;;;;;;;5034228;28;20432;-68
2023/11/18 12:59:17;;;;;;;12.13;5.68;;;;;;;;;;5035861;28;20021;-68
2023/11/18 13:01:50;;;;;;;9.45;5.40;;;;;;;;;;5035978;28;20060;-68
2023/11/18 13:04:16;;;;;;;9.38;4.57;;;;;;;;;;5034692;28;20435;-69
2023/11/18 13:06:42;;;;;;;9.90;5.90;;;;;;;;;;5035850;28;20032;-69
2023/11/18 13:09:10;;;;;;;8.43;5.28;;;;;;;;;;5034180;28;20032;-69
2023/11/18 13:11:35;;;;;;;9.65;5.68;;;;;;;;;;5034803;28;20033;-69
2023/11/18 13:14:02;;;;;;;9.07;6.28;;;;;;;;;;5035912;28;20025;-68
2023/11/18 13:16:27;;;;;;;11.23;5.28;;;;;;;;;;5034935;28;20025;-68
2023/11/18 13:18:54;;;;;;;11.70;6.57;;;;;;;;;;5034421;28;20163;-69
2023/11/18 13:21:24;;;;;;;8.00;5.82;;;;;;;;;;5035422;28;20028;-69
2023/11/18 13:23:52;;;;;;;11.20;5.32;;;;;;;;;;5035935;28;20025;-69
2023/11/18 13:26:19;;;;;;;10.32;5.38;;;;;;;;;;5034083;28;20072;-68
2023/11/18 13:28:46;;;;;;;9.68;5.72;;;;;;;;;;5033725;28;20116;-69
2023/11/18 13:31:16;;;;;;;8.40;4.90;;;;;;;;;;5034862;28;20036;-68
2023/11/18 13:33:42;;;;;;;10.25;5.72;;;;;;;;;;5034007;28;20021;-69
2023/11/18 13:36:10;;;;;;;11.88;6.30;;;;;;;;;;5033841;28;20104;-69
2023/11/18 13:38:38;;;;;;;14.93;6.18;;;;;;;;;;5035251;28;20025;-69
2023/11/18 13:41:04;;;;;;;10.45;5.32;;;;;;;;;;5033435;28;20088;-69
2023/11/18 13:43:47;;;;;;;8.30;5.55;;;;;;;;;;5034128;28;20025;-69
2023/11/18 13:46:18;;;;;;;10.52;5.32;;;;;;;;;;5035236;28;20441;-69
2023/11/18 13:48:48;;;;;;;11.45;5.90;;;;;;;;;;5034842;28;20494;-68
2023/11/18 13:51:15;;;;;;;11.48;6.03;;;;;;;;;;5017480;28;20037;-69
2023/11/18 13:53:43;;;;;;;14.52;6.28;;;;;;;;;;5033829;28;20025;-69
2023/11/18 13:56:12;;;;;;;11.25;6.25;;;;;;;;;;5034794;28;20029;-69
2023/11/18 13:58:38;;;;;;;7.93;5.35;;;;;;;;;;5034901;28;20043;-69
2023/11/18 14:01:08;;;;;;;10.50;5.57;;;;;;;;;;5033833;28;20108;-69
2023/11/18 14:03:36;;;;;;;9.65;5.53;;;;;;;;;;5042489;28;20036;-69
2023/11/18 14:06:03;;;;;;;10.57;5.20;;;;;;;;;;5033229;28;20385;-69
2023/11/18 14:08:29;;;;;;;12.98;6.13;;;;;;;;;;5034945;28;20018;-68
2023/11/18 14:10:55;;;;;;;13.68;6.15;;;;;;;;;;5034603;28;20063;-69
2023/11/18 14:13:21;;;;;;;10.32;4.55;;;;;;;;;;5033178;28;20386;-68
2023/11/18 14:15:47;;;;;;;11.05;6.28;;;;;;;;;;5049350;28;20029;-69
2023/11/18 14:18:13;;;;;;;12.80;6.10;;;;;;;;;;5053020;28;20025;-69
2023/11/18 14:20:39;;;;;;;11.60;6.10;;;;;;;;;;5053117;28;20504;-69
2023/11/18 14:23:04;;;;;;;11.77;6.88;;;;;;;;;;5053405;28;20029;-69
2023/11/18 14:25:30;;;;;;;12.07;6.57;;;;;;;;;;5054094;28;20032;-69
2023/11/18 14:27:56;;;;;;;13.98;7.00;;;;;;;;;;5053480;28;20017;-69
2023/11/18 14:30:24;;;;;;;14.10;6.68;;;;;;;;;;5053955;28;20023;-69
2023/11/18 14:32:49;;;;;;;12.75;5.78;;;;;;;;;;5036456;28;20393;-69
2023/11/18 14:35:17;;;;;;;11.55;5.68;;;;;;;;;;5054308;28;20017;-69
2023/11/18 14:37:43;;;;;;;17.42;7.55;;;;;;;;;;5053622;28;20054;-69
2023/11/18 14:40:15;;;;;;;9.63;6.22;;;;;;;;;;5053045;28;20082;-69
2023/11/18 14:42:45;;;;;;;11.27;6.32;;;;;;;;;;5054085;28;20028;-69